Time;durP1;ratioP1;P1;durP2;ratioP2;P2;SDS_P1;SDS_P2;PMS_P1;PMS_P2;Temp;Humidity;BMP_temperature;BMP_pressure;BME280_temperature;BME280_humidity;BME280_pressure;Samples;Min_cycle;Max_cycle;Signal;HPM_P1;HPM_P2
2021/07/24 00:01:19;;;;;;;;;;;;;;;;;;5069538;28;19925;-69
2021/07/24 00:03:46;;;;;;;;;;;;;;;;;;5062406;28;20316;-70
2021/07/24 00:06:13;;;;;;;;;;;;;;;;;;5069284;28;19924;-70
2021/07/24 00:08:40;;;;;;;;;;;;;;;;;;5062606;28;19991;-70
2021/07/24 00:11:06;;;;;;;;;;;;;;;;;;5066982;28;19924;-69
2021/07/24 00:13:33;;;;;;;;;;;;;;;;;;5064457;28;19931;-70
2021/07/24 00:16:00;;;;;;;;;;;;;;;;;;5064363;28;19924;-70
2021/07/24 00:18:27;;;;;;;;;;;;;;;;;;5060011;28;20395;-70
2021/07/24 00:20:54;;;;;;;;;;;;;;;;;;5069424;28;19924;-70
2021/07/24 00:23:21;;;;;;;;;;;;;;;;;;5063442;28;19969;-69
2021/07/24 00:25:48;;;;;;;;;;;;;;;;;;5059612;28;19924;-70
2021/07/24 00:28:15;;;;;;;;;;;;;;;;;;5069378;28;20332;-70
2021/07/24 00:30:42;;;;;;;;;;;;;;;;;;5063100;28;20365;-70
2021/07/24 00:33:09;;;;;;;;;;;;;;;;;;5067841;28;20024;-70
2021/07/24 00:35:37;;;;;;;;;;;;;;;;;;5058714;28;19932;-69
2021/07/24 00:38:04;;;;;;;;;;;;;;;;;;5069787;28;19924;-70
2021/07/24 00:40:31;;;;;;;;;;;;;;;;;;5062859;28;19931;-70
2021/07/24 00:42:58;;;;;;;;;;;;;;;;;;5060707;28;20396;-67
2021/07/24 00:45:25;;;;;;;;;;;;;;;;;;5063667;28;20300;-69
2021/07/24 00:47:52;;;;;;;;;;;;;;;;;;5064918;28;19924;-68
2021/07/24 00:50:19;;;;;;;;;;;;;;;;;;5067984;28;19925;-69
2021/07/24 00:52:48;;;;;;;;;;;;;;;;;;5071742;28;19924;-68
2021/07/24 00:55:15;;;;;;;;;;;;;;;;;;5064002;28;19931;-68
2021/07/24 00:57:44;;;;;;;;;;;;;;;;;;5061050;28;20120;-69
2021/07/24 01:00:11;;;;;;;;;;;;;;;;;;5070908;28;19928;-69
2021/07/24 01:02:38;;;;;;;;;;;;;;;;;;5071022;28;19935;-68
2021/07/24 01:05:05;;;;;;;;;;;;;;;;;;5060379;28;19932;-68
2021/07/24 01:07:32;;;;;;;;;;;;;;;;;;5069773;28;19924;-69
2021/07/24 01:09:59;;;;;;;;;;;;;;;;;;5065894;28;20388;-69
2021/07/24 01:12:26;;;;;;;;;;;;;;;;;;5062626;28;20383;-68
2021/07/24 01:14:53;;;;;;;;;;;;;;;;;;5068705;28;20385;-69
2021/07/24 01:17:20;;;;;;;;;;;;;;;;;;5072234;28;19940;-68
2021/07/24 01:19:49;;;;;;;;;;;;;;;;;;5071218;28;20396;-69
2021/07/24 01:22:16;;;;;;;;;;;;;;;;;;5067662;28;20010;-69
2021/07/24 01:24:43;;;;;;;;;;;;;;;;;;5068073;28;19924;-69
2021/07/24 01:27:10;;;;;;;;;;;;;;;;;;5068587;28;19928;-68
2021/07/24 01:29:36;;;;;;;;;;;;;;;;;;5071976;28;19925;-69
2021/07/24 01:32:03;;;;;;;;;;;;;;;;;;5073722;28;19932;-69
2021/07/24 01:34:30;;;;;;;;;;;;;;;;;;5070290;28;20311;-68
2021/07/24 01:36:57;;;;;;;;;;;;;;;;;;5067732;28;19925;-68
2021/07/24 01:39:24;;;;;;;;;;;;;;;;;;5060205;28;19931;-69
2021/07/24 01:41:53;;;;;;;;;;;;;;;;;;5070328;28;19931;-68
2021/07/24 01:44:23;;;;;;;;;;;;;;;;;;5068469;28;19924;-69
2021/07/24 01:46:50;;;;;;;;;;;;;;;;;;5069974;28;19928;-69
2021/07/24 01:54:42;;;;;;;;;;;;;;;;;;5070533;28;20014;-69
2021/07/24 01:57:09;;;;;;;;;;;;;;;;;;5064111;28;20312;-69
2021/07/24 01:59:36;;;;;;;;;;;;;;;;;;5066271;28;19924;-69
2021/07/24 02:02:03;;;;;;;;;;;;;;;;;;5059091;28;19930;-69
2021/07/24 02:04:30;;;;;;;;;;;;;;;;;;5070457;28;20351;-69
2021/07/24 02:06:57;;;;;;;;;;;;;;;;;;5073772;28;19928;-69
2021/07/24 02:09:24;;;;;;;;;;;;;;;;;;5068707;28;19928;-69
2021/07/24 02:11:51;;;;;;;;;;;;;;;;;;5071517;28;20292;-69
2021/07/24 02:14:18;;;;;;;;;;;;;;;;;;5070722;28;19924;-68
2021/07/24 02:16:45;;;;;;;;;;;;;;;;;;5065545;28;19932;-68
2021/07/24 02:19:12;;;;;;;;;;;;;;;;;;5058856;28;19925;-68
2021/07/24 02:21:39;;;;;;;;;;;;;;;;;;5065845;28;19935;-69
2021/07/24 02:24:06;;;;;;;;;;;;;;;;;;5064314;28;19931;-70
2021/07/24 02:26:33;;;;;;;;;;;;;;;;;;5065550;28;19932;-69
2021/07/24 02:29:00;;;;;;;;;;;;;;;;;;5061270;28;20288;-69
2021/07/24 02:31:27;;;;;;;;;;;;;;;;;;5062762;28;19928;-69
2021/07/24 02:33:54;;;;;;;;;;;;;;;;;;5070386;28;19928;-69
2021/07/24 02:36:21;;;;;;;;;;;;;;;;;;5064959;28;19931;-69
2021/07/24 02:38:48;;;;;;;;;;;;;;;;;;5066922;28;19925;-69
2021/07/24 02:41:15;;;;;;;;;;;;;;;;;;5063477;28;19940;-68
2021/07/24 02:43:42;;;;;;;;;;;;;;;;;;5067643;28;19925;-68
2021/07/24 02:46:09;;;;;;;;;;;;;;;;;;5070471;28;20380;-68
2021/07/24 02:48:35;;;;;;;;;;;;;;;;;;5069771;28;19924;-68
2021/07/24 02:51:03;;;;;;;;;;;;;;;;;;5064619;28;19931;-68
2021/07/24 02:53:30;;;;;;;;;;;;;;;;;;5061946;28;20027;-68
2021/07/24 02:55:56;;;;;;;;;;;;;;;;;;5069602;28;19925;-69
2021/07/24 02:58:23;;;;;;;;;;;;;;;;;;5063031;28;20388;-68
2021/07/24 03:00:50;;;;;;;;;;;;;;;;;;5071185;28;19924;-68
2021/07/24 03:03:17;;;;;;;;;;;;;;;;;;5071179;28;19948;-68
2021/07/24 03:05:44;;;;;;;;;;;;;;;;;;5064957;28;19925;-69
2021/07/24 03:08:11;;;;;;;;;;;;;;;;;;5071068;28;19928;-69
2021/07/24 03:10:38;;;;;;;;;;;;;;;;;;5064021;28;19932;-68
2021/07/24 03:13:05;;;;;;;;;;;;;;;;;;5063270;28;20301;-69
2021/07/24 03:15:32;;;;;;;;;;;;;;;;;;5067952;28;19928;-68
2021/07/24 03:17:59;;;;;;;;;;;;;;;;;;5071095;28;19932;-68
2021/07/24 03:20:26;;;;;;;;;;;;;;;;;;5071133;28;19931;-68
2021/07/24 03:22:53;;;;;;;;;;;;;;;;;;5061599;28;20011;-69
2021/07/24 03:25:20;;;;;;;;;;;;;;;;;;5066846;28;20320;-68
2021/07/24 03:27:47;;;;;;;;;;;;;;;;;;5065726;28;19925;-68
2021/07/24 03:30:14;;;;;;;;;;;;;;;;;;5067178;28;19925;-68
2021/07/24 03:32:41;;;;;;;;;;;;;;;;;;5062654;28;19925;-69
2021/07/24 03:35:08;;;;;;;;;;;;;;;;;;5060991;28;20297;-69
2021/07/24 03:37:35;;;;;;;;;;;;;;;;;;5064365;28;19932;-68
2021/07/24 03:40:02;;;;;;;;;;;;;;;;;;5063271;28;20308;-73
2021/07/24 03:42:29;;;;;;;;;;;;;;;;;;5066174;28;19964;-68
2021/07/24 03:44:56;;;;;;;;;;;;;;;;;;5063386;28;19924;-69
2021/07/24 03:47:23;;;;;;;;;;;;;;;;;;5061933;28;20380;-69
2021/07/24 03:49:50;;;;;;;;;;;;;;;;;;5067759;28;20300;-69
2021/07/24 03:52:17;;;;;;;;;;;;;;;;;;5063312;28;20227;-68
2021/07/24 03:54:44;;;;;;;;;;;;;;;;;;5062485;28;19924;-69
2021/07/24 03:57:11;;;;;;;;;;;;;;;;;;5066805;28;19933;-68
2021/07/24 03:59:38;;;;;;;;;;;;;;;;;;5061870;28;20410;-68
2021/07/24 04:02:08;;;;;;;;;;;;;;;;;;5064907;28;20308;-68
2021/07/24 04:04:35;;;;;;;;;;;;;;;;;;5066166;28;20296;-68
2021/07/24 04:07:02;;;;;;;;;;;;;;;;;;5060388;28;19947;-68
2021/07/24 04:09:28;;;;;;;;;;;;;;;;;;5063043;28;19939;-68
2021/07/24 04:11:55;;;;;;;;;;;;;;;;;;5062275;28;20381;-68
2021/07/24 04:14:22;;;;;;;;;;;;;;;;;;5065398;28;19925;-68
2021/07/24 04:16:49;;;;;;;;;;;;;;;;;;5058943;28;20369;-68
2021/07/24 04:19:16;;;;;;;;;;;;;;;;;;5062966;28;19925;-68
2021/07/24 04:21:43;;;;;;;;;;;;;;;;;;5069352;28;19931;-68
2021/07/24 04:24:10;;;;;;;;;;;;;;;;;;5062411;28;19935;-68
2021/07/24 04:26:37;;;;;;;;;;;;;;;;;;5069876;28;19931;-68
2021/07/24 04:29:08;;;;;;;;;;;;;;;;;;5067961;28;19925;-68
2021/07/24 04:31:35;;;;;;;;;;;;;;;;;;5073339;28;19977;-68
2021/07/24 04:34:02;;;;;;;;;;;;;;;;;;5066448;28;19925;-68
2021/07/24 04:36:29;;;;;;;;;;;;;;;;;;5064856;28;19925;-68
2021/07/24 04:38:56;;;;;;;;;;;;;;;;;;5073611;28;19928;-68
2021/07/24 04:41:23;;;;;;;;;;;;;;;;;;5064639;28;19924;-68
2021/07/24 04:43:50;;;;;;;;;;;;;;;;;;5066491;28;20116;-68
2021/07/24 04:46:17;;;;;;;;;;;;;;;;;;5074327;28;20317;-68
2021/07/24 04:48:44;;;;;;;;;;;;;;;;;;5066018;28;19925;-68
2021/07/24 04:51:13;;;;;;;;;;;;;;;;;;5071174;28;19928;-69
2021/07/24 04:53:40;;;;;;;;;;;;;;;;;;5065919;28;20456;-69
2021/07/24 04:56:07;;;;;;;;;;;;;;;;;;5064562;28;20381;-68
2021/07/24 04:58:34;;;;;;;;;;;;;;;;;;5070892;28;19930;-68
2021/07/24 05:01:01;;;;;;;;;;;;;;;;;;5071871;28;19951;-68
2021/07/24 05:03:28;;;;;;;;;;;;;;;;;;5070657;28;19925;-68
2021/07/24 05:05:55;;;;;;;;;;;;;;;;;;5058381;28;19936;-69
2021/07/24 05:08:22;;;;;;;;;;;;;;;;;;5065211;28;19925;-68
2021/07/24 05:10:49;;;;;;;;;;;;;;;;;;5078879;28;19925;-69
2021/07/24 05:13:16;;;;;;;;;;;;;;;;;;5070140;28;19983;-70
2021/07/24 05:15:43;;;;;;;;;;;;;;;;;;5062018;28;20023;-70
2021/07/24 05:18:12;;;;;;;;;;;;;;;;;;5067491;28;19928;-70
2021/07/24 05:20:39;;;;;;;;;;;;;;;;;;5066808;28;20674;-68
2021/07/24 05:23:06;;;;;;;;;;;;;;;;;;5063346;28;19925;-70
2021/07/24 05:25:33;;;;;;;;;;;;;;;;;;5071797;28;20273;-68
2021/07/24 05:28:00;;;;;;;;;;;;;;;;;;5066208;28;20357;-69
2021/07/24 05:30:27;;;;;;;;;;;;;;;;;;5070506;28;19933;-68
2021/07/24 05:32:54;;;;;;;;;;;;;;;;;;5067076;28;19925;-68
2021/07/24 05:35:21;;;;;;;;;;;;;;;;;;5065648;28;20400;-68
2021/07/24 05:37:48;;;;;;;;;;;;;;;;;;5064366;28;19939;-68
2021/07/24 05:40:17;;;;;;;;;;;;;;;;;;5065678;28;19925;-68
2021/07/24 05:42:44;;;;;;;;;;;;;;;;;;5061549;28;20320;-68
2021/07/24 05:45:11;;;;;;;;;;;;;;;;;;5062587;28;20320;-68
2021/07/24 05:47:38;;;;;;;;;;;;;;;;;;5066163;28;19972;-69
2021/07/24 05:50:05;;;;;;;;;;;;;;;;;;5065190;28;20208;-68
2021/07/24 05:52:32;;;;;;;;;;;;;;;;;;5068999;28;20401;-68
2021/07/24 05:54:59;;;;;;;;;;;;;;;;;;5064836;28;19925;-68
2021/07/24 05:57:26;;;;;;;;;;;;;;;;;;5071147;28;19924;-68
2021/07/24 05:59:53;;;;;;;;;;;;;;;;;;5065590;28;19928;-68
2021/07/24 06:02:20;;;;;;;;;;;;;;;;;;5067932;28;19931;-67
2021/07/24 06:04:47;;;;;;;;;;;;;;;;;;5070601;28;19932;-68
2021/07/24 06:07:14;;;;;;;;;;;;;;;;;;5067952;28;19994;-67
2021/07/24 06:09:41;;;;;;;;;;;;;;;;;;5063393;28;20417;-71
2021/07/24 06:12:08;;;;;;;;;;;;;;;;;;5066197;28;20464;-66
2021/07/24 06:14:35;;;;;;;;;;;;;;;;;;5067070;28;19933;-66
2021/07/24 06:17:02;;;;;;;;;;;;;;;;;;5064849;28;19925;-69
2021/07/24 06:19:29;;;;;;;;;;;;;;;;;;5058812;28;19954;-68
2021/07/24 06:21:56;;;;;;;;;;;;;;;;;;5065297;28;19931;-68
2021/07/24 06:24:23;;;;;;;;;;;;;;;;;;5060127;28;19932;-68
2021/07/24 06:26:50;;;;;;;;;;;;;;;;;;5066707;28;20423;-69
2021/07/24 06:29:17;;;;;;;;;;;;;;;;;;5064144;28;19925;-67
2021/07/24 06:31:44;;;;;;;;;;;;;;;;;;5059218;28;19936;-69
2021/07/24 06:34:11;;;;;;;;;;;;;;;;;;5062675;28;20396;-68
2021/07/24 06:36:39;;;;;;;;;;;;;;;;;;5062473;28;19931;-69
2021/07/24 06:39:06;;;;;;;;;;;;;;;;;;5067490;28;20325;-68
2021/07/24 06:41:34;;;;;;;;;;;;;;;;;;5060695;28;19947;-67
2021/07/24 06:44:02;;;;;;;;;;;;;;;;;;5056500;28;19924;-67
2021/07/24 06:46:29;;;;;;;;;;;;;;;;;;5061083;28;19925;-67
2021/07/24 06:48:56;;;;;;;;;;;;;;;;;;5055325;28;19925;-67
2021/07/24 06:51:23;;;;;;;;;;;;;;;;;;5069398;28;19939;-67
2021/07/24 06:53:50;;;;;;;;;;;;;;;;;;5065338;28;19925;-68
2021/07/24 06:56:17;;;;;;;;;;;;;;;;;;5069425;28;19931;-67
2021/07/24 06:58:44;;;;;;;;;;;;;;;;;;5070010;28;19925;-67
2021/07/24 07:01:11;;;;;;;;;;;;;;;;;;5060333;28;19929;-67
2021/07/24 07:03:38;;;;;;;;;;;;;;;;;;5067110;28;19925;-68
2021/07/24 07:06:05;;;;;;;;;;;;;;;;;;5062353;28;20278;-68
2021/07/24 07:08:32;;;;;;;;;;;;;;;;;;5066071;28;19971;-69
2021/07/24 07:10:59;;;;;;;;;;;;;;;;;;5060416;28;20325;-70
2021/07/24 07:13:26;;;;;;;;;;;;;;;;;;5066991;28;19924;-68
2021/07/24 07:15:53;;;;;;;;;;;;;;;;;;5068527;28;19925;-69
2021/07/24 07:18:20;;;;;;;;;;;;;;;;;;5064546;28;19925;-68
2021/07/24 07:20:47;;;;;;;;;;;;;;;;;;5065819;28;19970;-69
2021/07/24 07:23:14;;;;;;;;;;;;;;;;;;5063873;28;19924;-67
2021/07/24 07:25:41;;;;;;;;;;;;;;;;;;5068375;28;19925;-68
2021/07/24 07:28:10;;;;;;;;;;;;;;;;;;5061426;28;19924;-68
2021/07/24 07:30:36;;;;;;;;;;;;;;;;;;5063346;28;20379;-68
2021/07/24 07:33:03;;;;;;;;;;;;;;;;;;5068087;28;19925;-68
2021/07/24 07:35:30;;;;;;;;;;;;;;;;;;5064279;28;19924;-68
2021/07/24 07:37:59;;;;;;;;;;;;;;;;;;5061883;28;19928;-69
2021/07/24 07:40:26;;;;;;;;;;;;;;;;;;5059805;28;19970;-67
2021/07/24 07:42:53;;;;;;;;;;;;;;;;;;5064745;28;20385;-67
2021/07/24 07:45:20;;;;;;;;;;;;;;;;;;5054849;28;19925;-68
2021/07/24 07:47:47;;;;;;;;;;;;;;;;;;5059956;28;19933;-67
2021/07/24 07:50:14;;;;;;;;;;;;;;;;;;5062319;28;20131;-67
2021/07/24 07:52:41;;;;;;;;;;;;;;;;;;5060068;28;19928;-67
2021/07/24 07:55:08;;;;;;;;;;;;;;;;;;5055000;28;19936;-67
2021/07/24 07:57:34;;;;;;;;;;;;;;;;;;5058169;28;19925;-68
2021/07/24 08:00:01;;;;;;;;;;;;;;;;;;5065112;28;19928;-67
2021/07/24 08:02:28;;;;;;;;;;;;;;;;;;5064245;28;19931;-68
2021/07/24 08:04:55;;;;;;;;;;;;;;;;;;5068149;28;20015;-68
2021/07/24 08:07:22;;;;;;;;;;;;;;;;;;5063508;28;19924;-68
2021/07/24 08:09:49;;;;;;;;;;;;;;;;;;5066912;28;19925;-68
2021/07/24 08:12:16;;;;;;;;;;;;;;;;;;5064757;28;19932;-68
2021/07/24 08:14:43;;;;;;;;;;;;;;;;;;5058937;28;19929;-68
2021/07/24 08:17:10;;;;;;;;;;;;;;;;;;5066119;28;20300;-67
2021/07/24 08:19:37;;;;;;;;;;;;;;;;;;5064639;28;19947;-67
2021/07/24 08:22:04;;;;;;;;;;;;;;;;;;5056154;28;20304;-67
2021/07/24 08:24:31;;;;;;;;;;;;;;;;;;5054322;28;19951;-67
2021/07/24 08:26:58;;;;;;;;;;;;;;;;;;5062202;28;19929;-66
2021/07/24 08:29:25;;;;;;;;;;;;;;;;;;5062542;28;19925;-68
2021/07/24 08:31:52;;;;;;;;;;;;;;;;;;5060773;28;19931;-66
2021/07/24 08:34:19;;;;;;;;;;;;;;;;;;5056804;28;19943;-67
2021/07/24 08:36:46;;;;;;;;;;;;;;;;;;5061219;28;19932;-66
2021/07/24 08:39:13;;;;;;;;;;;;;;;;;;5060274;28;19951;-66
2021/07/24 08:41:41;;;;;;;;;;;;;;;;;;5057216;28;19931;-67
2021/07/24 08:44:09;;;;;;;;;;;;;;;;;;5065404;28;19986;-67
2021/07/24 08:46:36;;;;;;;;;;;;;;;;;;5065101;28;19932;-67
2021/07/24 08:49:03;;;;;;;;;;;;;;;;;;5063479;28;19932;-67
2021/07/24 08:51:30;;;;;;;;;;;;;;;;;;5057088;28;20401;-67
2021/07/24 08:53:57;;;;;;;;;;;;;;;;;;5064602;28;19924;-66
2021/07/24 08:56:24;;;;;;;;;;;;;;;;;;5068554;28;19925;-66
2021/07/24 08:58:51;;;;;;;;;;;;;;;;;;5063777;28;20350;-67
2021/07/24 09:01:19;;;;;;;;;;;;;;;;;;5063842;28;19975;-67
2021/07/24 09:03:46;;;;;;;;;;;;;;;;;;5062886;28;19925;-67
2021/07/24 09:06:13;;;;;;;;;;;;;;;;;;5067489;28;20011;-67
2021/07/24 09:08:39;;;;;;;;;;;;;;;;;;5067605;28;19930;-66
2021/07/24 09:11:06;;;;;;;;;;;;;;;;;;5063972;28;19928;-66
2021/07/24 09:13:33;;;;;;;;;;;;;;;;;;5062632;28;19925;-68
2021/07/24 09:16:00;;;;;;;;;;;;;;;;;;5064062;28;20377;-66
2021/07/24 09:18:27;;;;;;;;;;;;;;;;;;5066957;28;19932;-66
2021/07/24 09:20:54;;;;;;;;;;;;;;;;;;5063996;28;19929;-65
2021/07/24 09:23:21;;;;;;;;;;;;;;;;;;5061603;28;19939;-66
2021/07/24 09:25:48;;;;;;;;;;;;;;;;;;5064855;28;19928;-66
2021/07/24 09:28:15;;;;;;;;;;;;;;;;;;5066193;28;19931;-66
2021/07/24 09:30:42;;;;;;;;;;;;;;;;;;5058892;28;19924;-66
2021/07/24 09:33:09;;;;;;;;;;;;;;;;;;5060917;28;19983;-66
2021/07/24 09:35:36;;;;;;;;;;;;;;;;;;5067444;28;20015;-67
2021/07/24 09:38:03;;;;;;;;;;;;;;;;;;5068587;28;19924;-67
2021/07/24 09:40:30;;;;;;;;;;;;;;;;;;5069934;28;19925;-67
2021/07/24 09:42:57;;;;;;;;;;;;;;;;;;5064584;28;19924;-68
2021/07/24 09:45:24;;;;;;;;;;;;;;;;;;5063069;28;20027;-68
2021/07/24 09:47:52;;;;;;;;;;;;;;;;;;5061381;28;19928;-68
2021/07/24 09:50:19;;;;;;;;;;;;;;;;;;5062495;28;19932;-68
2021/07/24 09:52:46;;;;;;;;;;;;;;;;;;5066446;28;19925;-68
2021/07/24 09:55:13;;;;;;;;;;;;;;;;;;5066874;28;19924;-66
2021/07/24 09:57:40;;;;;;;;;;;;;;;;;;5068433;28;20338;-67
2021/07/24 10:00:07;;;;;;;;;;;;;;;;;;5063839;28;19924;-66
2021/07/24 10:02:35;;;;;;;;;;;;;;;;;;5063893;28;19979;-66
2021/07/24 10:05:02;;;;;;;;;;;;;;;;;;5055857;28;19929;-67
2021/07/24 10:07:29;;;;;;;;;;;;;;;;;;5070490;28;19931;-66
2021/07/24 10:09:56;;;;;;;;;;;;;;;;;;5062363;28;19932;-66
2021/07/24 10:12:23;;;;;;;;;;;;;;;;;;5055135;28;20288;-66
2021/07/24 10:14:51;;;;;;;;;;;;;;;;;;5066028;28;19924;-66
2021/07/24 10:17:18;;;;;;;;;;;;;;;;;;5062651;28;20269;-66
2021/07/24 10:19:45;;;;;;;;;;;;;;;;;;5057282;28;20301;-66
2021/07/24 10:22:12;;;;;;;;;;;;;;;;;;5062995;28;20023;-66
2021/07/24 10:24:39;;;;;;;;;;;;;;;;;;5060693;28;20357;-66
2021/07/24 10:27:06;;;;;;;;;;;;;;;;;;5064029;28;19924;-66
2021/07/24 10:29:33;;;;;;;;;;;;;;;;;;5059256;28;19924;-66
2021/07/24 10:32:00;;;;;;;;;;;;;;;;;;5064790;28;19931;-66
2021/07/24 10:34:27;;;;;;;;;;;;;;;;;;5060837;28;20040;-66
2021/07/24 10:36:54;;;;;;;;;;;;;;;;;;5059146;28;19931;-66
2021/07/24 10:39:21;;;;;;;;;;;;;;;;;;5062891;28;19928;-66
2021/07/24 10:41:48;;;;;;;;;;;;;;;;;;5071054;28;19931;-66
2021/07/24 10:44:15;;;;;;;;;;;;;;;;;;5070115;28;19928;-66
2021/07/24 10:46:43;;;;;;;;;;;;;;;;;;5059225;28;20289;-66
2021/07/24 10:49:10;;;;;;;;;;;;;;;;;;5063456;28;19951;-66
2021/07/24 10:51:37;;;;;;;;;;;;;;;;;;5057878;28;19933;-66
2021/07/24 10:54:04;;;;;;;;;;;;;;;;;;5061452;28;20376;-66
2021/07/24 10:56:31;;;;;;;;;;;;;;;;;;5062958;28;19939;-66
2021/07/24 10:58:58;;;;;;;;;;;;;;;;;;5061494;28;19931;-66
2021/07/24 11:01:25;;;;;;;;;;;;;;;;;;5059898;28;19935;-66
2021/07/24 11:03:51;;;;;;;;;;;;;;;;;;5062775;28;20381;-66
2021/07/24 11:06:17;;;;;;;;;;;;;;;;;;5064031;28;19928;-66
2021/07/24 11:08:44;;;;;;;;;;;;;;;;;;5066431;28;19927;-66
2021/07/24 11:11:11;;;;;;;;;;;;;;;;;;5059974;28;19929;-66
2021/07/24 11:13:38;;;;;;;;;;;;;;;;;;5065331;28;20282;-67
2021/07/24 11:16:05;;;;;;;;;;;;;;;;;;5068843;28;19932;-67
2021/07/24 11:18:33;;;;;;;;;;;;;;;;;;5054685;28;19929;-67
2021/07/24 11:21:00;;;;;;;;;;;;;;;;;;5066943;28;19924;-68
2021/07/24 11:23:27;;;;;;;;;;;;;;;;;;5061709;28;19924;-71
2021/07/24 11:25:54;;;;;;;;;;;;;;;;;;5061533;28;19932;-69
2021/07/24 11:28:21;;;;;;;;;;;;;;;;;;5061187;28;19960;-68
2021/07/24 11:30:48;;;;;;;;;;;;;;;;;;5060254;28;19924;-68
2021/07/24 11:33:15;;;;;;;;;;;;;;;;;;5064826;28;19924;-68
2021/07/24 11:35:42;;;;;;;;;;;;;;;;;;5061269;28;20377;-68
2021/07/24 11:38:08;;;;;;;;;;;;;;;;;;5065160;28;20297;-69
2021/07/24 11:40:35;;;;;;;;;;;;;;;;;;5060148;28;19932;-70
2021/07/24 11:43:02;;;;;;;;;;;;;;;;;;5063171;28;19932;-69
2021/07/24 11:45:29;;;;;;;;;;;;;;;;;;5064192;28;19925;-68
2021/07/24 11:47:56;;;;;;;;;;;;;;;;;;5063257;28;19933;-68
2021/07/24 11:50:23;;;;;;;;;;;;;;;;;;5061728;28;20297;-68
2021/07/24 11:52:50;;;;;;;;;;;;;;;;;;5063190;28;19925;-69
2021/07/24 11:55:17;;;;;;;;;;;;;;;;;;5063969;28;19931;-69
2021/07/24 11:57:44;;;;;;;;;;;;;;;;;;5063219;28;19935;-69
2021/07/24 12:00:11;;;;;;;;;;;;;;;;;;5065104;28;20415;-69
2021/07/24 12:02:38;;;;;;;;;;;;;;;;;;5062432;28;19939;-69
2021/07/24 12:05:05;;;;;;;;;;;;;;;;;;5062455;28;19924;-69
2021/07/24 12:07:32;;;;;;;;;;;;;;;;;;5064931;28;19932;-68
2021/07/24 12:09:58;;;;;;;;;;;;;;;;;;5062231;28;19924;-69
2021/07/24 12:12:25;;;;;;;;;;;;;;;;;;5060908;28;19973;-69
2021/07/24 12:14:52;;;;;;;;;;;;;;;;;;5063389;28;19935;-69
2021/07/24 12:17:19;;;;;;;;;;;;;;;;;;5064254;28;19936;-69
2021/07/24 12:19:46;;;;;;;;;;;;;;;;;;5059706;28;19929;-69
2021/07/24 12:22:14;;;;;;;;;;;;;;;;;;5062661;28;19931;-69
2021/07/24 12:24:41;;;;;;;;;;;;;;;;;;5060607;28;20001;-69
2021/07/24 12:27:08;;;;;;;;;;;;;;;;;;5064161;28;19928;-69
2021/07/24 12:29:35;;;;;;;;;;;;;;;;;;5064960;28;19925;-69
2021/07/24 12:32:02;;;;;;;;;;;;;;;;;;5060884;28;19935;-69
2021/07/24 12:34:29;;;;;;;;;;;;;;;;;;5064046;28;19925;-69
2021/07/24 12:36:57;;;;;;;;;;;;;;;;;;5064143;28;19931;-69
2021/07/24 12:39:24;;;;;;;;;;;;;;;;;;5062083;28;19947;-69
2021/07/24 12:41:51;;;;;;;;;;;;;;;;;;5063325;28;19925;-69
2021/07/24 12:44:17;;;;;;;;;;;;;;;;;;5063442;28;19924;-69
2021/07/24 12:46:44;;;;;;;;;;;;;;;;;;5067251;28;19931;-69
2021/07/24 12:49:11;;;;;;;;;;;;;;;;;;5066719;28;20324;-69
2021/07/24 12:51:40;;;;;;;;;;;;;;;;;;5066186;28;19924;-69
2021/07/24 12:54:07;;;;;;;;;;;;;;;;;;5068436;28;19925;-69
2021/07/24 12:56:34;;;;;;;;;;;;;;;;;;5066944;28;19924;-69
2021/07/24 12:59:01;;;;;;;;;;;;;;;;;;5067200;28;19932;-69
2021/07/24 13:01:28;;;;;;;;;;;;;;;;;;5065366;28;19929;-69
2021/07/24 13:03:55;;;;;;;;;;;;;;;;;;5066045;28;19924;-69
2021/07/24 13:06:27;;;;;;;;;;;;;;;;;;5067365;28;19928;-69
2021/07/24 13:08:54;;;;;;;;;;;;;;;;;;5069465;28;19937;-70
2021/07/24 13:11:21;;;;;;;;;;;;;;;;;;5066314;28;19931;-69
2021/07/24 13:13:48;;;;;;;;;;;;;;;;;;5067727;28;20399;-69
2021/07/24 13:16:17;;;;;;;;;;;;;;;;;;5066312;28;19933;-69
2021/07/24 13:18:44;;;;;;;;;;;;;;;;;;5065490;28;19930;-69
2021/07/24 13:21:11;;;;;;;;;;;;;;;;;;5063405;28;19982;-69
2021/07/24 13:23:38;;;;;;;;;;;;;;;;;;5067091;28;19931;-70
2021/07/24 13:28:49;;;;;;;;;;;;;;;;;;5066387;28;20187;-69
2021/07/24 13:31:16;;;;;;;;;;;;;;;;;;5065477;28;20296;-70
2021/07/24 13:33:43;;;;;;;;;;;;;;;;;;5065189;28;19925;-70
2021/07/24 13:36:10;;;;;;;;;;;;;;;;;;5065786;28;19933;-70
2021/07/24 13:38:37;;;;;;;;;;;;;;;;;;5067282;28;19931;-70
2021/07/24 13:41:04;;;;;;;;;;;;;;;;;;5067232;28;19925;-69
2021/07/24 13:43:31;;;;;;;;;;;;;;;;;;5065896;28;19931;-69
2021/07/24 13:45:58;;;;;;;;;;;;;;;;;;5065077;28;20316;-69
2021/07/24 13:48:24;;;;;;;;;;;;;;;;;;5066575;28;19925;-69
2021/07/24 13:50:51;;;;;;;;;;;;;;;;;;5066200;28;20311;-69
2021/07/24 13:53:18;;;;;;;;;;;;;;;;;;5067649;28;19928;-70
2021/07/24 13:55:46;;;;;;;;;;;;;;;;;;5067786;28;19931;-71
2021/07/24 13:58:13;;;;;;;;;;;;;;;;;;5064056;28;20388;-69
2021/07/24 14:00:40;;;;;;;;;;;;;;;;;;5067724;28;19925;-70
2021/07/24 14:03:09;;;;;;;;;;;;;;;;;;5064134;28;19997;-70
2021/07/24 14:05:36;;;;;;;;;;;;;;;;;;5068511;28;19929;-69
2021/07/24 14:08:03;;;;;;;;;;;;;;;;;;5064072;28;19947;-70
2021/07/24 14:10:30;;;;;;;;;;;;;;;;;;5063089;28;19924;-70
2021/07/24 14:12:56;;;;;;;;;;;;;;;;;;5065818;28;19928;-70
2021/07/24 14:15:23;;;;;;;;;;;;;;;;;;5066167;28;19932;-70
2021/07/24 14:17:51;;;;;;;;;;;;;;;;;;5062536;28;19931;-70
2021/07/24 14:20:17;;;;;;;;;;;;;;;;;;5064896;28;19924;-70
2021/07/24 14:22:44;;;;;;;;;;;;;;;;;;5064510;28;19936;-69
2021/07/24 14:25:11;;;;;;;;;;;;;;;;;;5069006;28;20300;-70
2021/07/24 14:27:39;;;;;;;;;;;;;;;;;;5062489;28;20062;-70
2021/07/24 14:30:06;;;;;;;;;;;;;;;;;;5065748;28;20389;-70
2021/07/24 14:32:33;;;;;;;;;;;;;;;;;;5068283;28;20385;-69
2021/07/24 14:35:00;;;;;;;;;;;;;;;;;;5062175;28;19925;-69
2021/07/24 14:37:28;;;;;;;;;;;;;;;;;;5060165;28;20115;-70
2021/07/24 14:39:55;;;;;;;;;;;;;;;;;;5062860;28;19939;-70
2021/07/24 14:42:23;;;;;;;;;;;;;;;;;;5066022;28;19924;-69
2021/07/24 14:44:50;;;;;;;;;;;;;;;;;;5061272;28;19978;-69
2021/07/24 14:47:18;;;;;;;;;;;;;;;;;;5063140;28;19930;-69
2021/07/24 14:49:45;;;;;;;;;;;;;;;;;;5061433;28;19932;-69
2021/07/24 14:52:12;;;;;;;;;;;;;;;;;;5062177;28;19931;-69
2021/07/24 14:54:38;;;;;;;;;;;;;;;;;;5057472;28;19931;-69
2021/07/24 14:57:08;;;;;;;;;;;;;;;;;;5058788;28;19925;-69
2021/07/24 14:59:35;;;;;;;;;;;;;;;;;;5055423;28;19932;-70
2021/07/24 15:02:02;;;;;;;;;;;;;;;;;;5063663;28;19928;-70
2021/07/24 15:04:29;;;;;;;;;;;;;;;;;;5059569;28;19925;-67
2021/07/24 15:06:56;;;;;;;;;;;;;;;;;;5065793;28;19924;-69
2021/07/24 15:09:23;;;;;;;;;;;;;;;;;;5059372;28;20323;-69
2021/07/24 15:11:50;;;;;;;;;;;;;;;;;;5062960;28;20024;-69
2021/07/24 15:14:17;;;;;;;;;;;;;;;;;;5067105;28;20003;-69
2021/07/24 15:16:44;;;;;;;;;;;;;;;;;;5063736;28;19925;-70
2021/07/24 15:19:11;;;;;;;;;;;;;;;;;;5062990;28;19928;-69
2021/07/24 15:21:38;;;;;;;;;;;;;;;;;;5063230;28;20397;-70
2021/07/24 15:24:08;;;;;;;;;;;;;;;;;;5064609;28;19931;-69
2021/07/24 15:26:35;;;;;;;;;;;;;;;;;;5058799;28;20300;-69
2021/07/24 15:29:02;;;;;;;;;;;;;;;;;;5062245;28;19928;-69
2021/07/24 15:31:29;;;;;;;;;;;;;;;;;;5064932;28;19925;-69
2021/07/24 15:33:56;;;;;;;;;;;;;;;;;;5064234;28;19932;-68
2021/07/24 15:36:23;;;;;;;;;;;;;;;;;;5063951;28;19932;-69
2021/07/24 15:38:50;;;;;;;;;;;;;;;;;;5066228;28;19924;-68
2021/07/24 15:41:17;;;;;;;;;;;;;;;;;;5062661;28;20442;-68
2021/07/24 15:43:44;;;;;;;;;;;;;;;;;;5064601;28;19925;-68
2021/07/24 15:46:11;;;;;;;;;;;;;;;;;;5066592;28;19932;-67
2021/07/24 15:48:38;;;;;;;;;;;;;;;;;;5061517;28;19928;-68
2021/07/24 15:51:05;;;;;;;;;;;;;;;;;;5063997;28;19925;-68
2021/07/24 15:53:32;;;;;;;;;;;;;;;;;;5061819;28;19930;-68
2021/07/24 15:55:59;;;;;;;;;;;;;;;;;;5060173;28;19929;-68
2021/07/24 15:58:26;;;;;;;;;;;;;;;;;;5062995;28;19932;-68
2021/07/24 16:00:53;;;;;;;;;;;;;;;;;;5063657;28;20307;-68
2021/07/24 16:03:20;;;;;;;;;;;;;;;;;;5066209;28;20024;-68
2021/07/24 16:05:47;;;;;;;;;;;;;;;;;;5063572;28;19925;-68
2021/07/24 16:08:14;;;;;;;;;;;;;;;;;;5061897;28;19941;-68
2021/07/24 16:10:41;;;;;;;;;;;;;;;;;;5061967;28;20296;-68
2021/07/24 16:13:08;;;;;;;;;;;;;;;;;;5063811;28;19928;-67
2021/07/24 16:15:35;;;;;;;;;;;;;;;;;;5066068;28;19924;-68
2021/07/24 16:18:02;;;;;;;;;;;;;;;;;;5062865;28;19952;-67
2021/07/24 16:20:29;;;;;;;;;;;;;;;;;;5063345;28;19925;-67
2021/07/24 16:22:56;;;;;;;;;;;;;;;;;;5065294;28;19925;-68
2021/07/24 16:25:23;;;;;;;;;;;;;;;;;;5063528;28;19933;-68
2021/07/24 16:27:50;;;;;;;;;;;;;;;;;;5064134;28;19933;-68
2021/07/24 16:30:17;;;;;;;;;;;;;;;;;;5065681;28;19951;-68
2021/07/24 16:32:44;;;;;;;;;;;;;;;;;;5061598;28;19924;-68
2021/07/24 16:35:11;;;;;;;;;;;;;;;;;;5065763;28;19929;-68
2021/07/24 16:37:38;;;;;;;;;;;;;;;;;;5063434;28;19932;-68
2021/07/24 16:40:05;;;;;;;;;;;;;;;;;;5062877;28;19930;-68
2021/07/24 16:42:32;;;;;;;;;;;;;;;;;;5064040;28;19924;-68
2021/07/24 16:44:58;;;;;;;;;;;;;;;;;;5063785;28;19924;-67
2021/07/24 16:47:25;;;;;;;;;;;;;;;;;;5062636;28;19939;-68
2021/07/24 16:49:52;;;;;;;;;;;;;;;;;;5063565;28;19928;-69
2021/07/24 16:52:19;;;;;;;;;;;;;;;;;;5066575;28;19925;-68